createdAt,value
2023-03-11T00:00:52.316Z,13.00
2023-03-11T00:01:54.007Z,11.50
2023-03-11T00:02:58.193Z,9.50
2023-03-11T00:04:01.358Z,10.50
2023-03-11T00:05:03.325Z,13.00
2023-03-11T00:06:07.358Z,10.50
2023-03-11T00:07:10.808Z,8.50
2023-03-11T00:08:14.909Z,10.00
2023-03-11T00:09:16.686Z,11.00
2023-03-11T00:10:20.618Z,11.00
2023-03-11T00:11:22.527Z,9.50
2023-03-11T00:12:25.128Z,11.00
2023-03-11T00:13:28.306Z,11.50
2023-03-11T00:14:30.073Z,11.00
2023-03-11T00:15:32.698Z,12.00
2023-03-11T00:16:34.428Z,13.00
2023-03-11T00:17:37.064Z,7.50
2023-03-11T00:18:38.702Z,11.00
2023-03-11T00:19:41.335Z,9.00
2023-03-11T00:20:43.617Z,10.50
2023-03-11T00:21:46.248Z,9.00
2023-03-11T00:22:50.933Z,9.00
2023-03-11T00:23:53.548Z,10.50
2023-03-11T00:24:55.255Z,10.00
2023-03-11T00:25:59.676Z,9.00
2023-03-11T00:27:01.349Z,10.50
2023-03-11T00:28:04.321Z,7.00
2023-03-11T00:29:05.959Z,11.00
2023-03-11T00:30:10.117Z,8.00
2023-03-11T00:31:12.472Z,9.00
2023-03-11T00:32:15.115Z,8.00
2023-03-11T00:33:16.808Z,9.00
2023-03-11T00:34:19.477Z,8.50
2023-03-11T00:35:22.301Z,7.00
2023-03-11T00:36:28.715Z,7.00
2023-03-11T00:37:30.343Z,9.00
2023-03-11T00:38:34.367Z,9.50
2023-03-11T00:39:36.026Z,6.00
2023-03-11T00:40:38.793Z,7.50
2023-03-11T00:41:40.425Z,9.00
2023-03-11T00:42:43.026Z,9.50
2023-03-11T00:43:44.676Z,9.50
2023-03-11T00:44:47.282Z,9.00
2023-03-11T00:45:49.028Z,9.00
2023-03-11T00:46:51.708Z,10.50
2023-03-11T00:47:53.397Z,11.00
2023-03-11T00:48:55.998Z,7.00
2023-03-11T00:49:57.628Z,8.50
2023-03-11T00:51:00.328Z,11.00
2023-03-11T00:52:01.993Z,8.00
2023-03-11T00:53:04.928Z,10.00
2023-03-11T00:54:07.923Z,11.00
2023-03-11T00:55:11.504Z,9.00
2023-03-11T00:56:14.160Z,7.00
2023-03-11T00:57:16.772Z,9.00
2023-03-11T00:58:18.400Z,9.50
2023-03-11T00:59:21.003Z,11.50
2023-03-11T01:00:23.174Z,11.00
2023-03-11T01:01:25.874Z,8.50
2023-03-11T01:02:27.580Z,11.00
2023-03-11T01:03:30.193Z,9.00
2023-03-11T01:04:31.850Z,12.00
2023-03-11T01:05:34.802Z,8.00
2023-03-11T01:06:45.205Z,10.00
2023-03-11T01:07:47.430Z,11.00
2023-03-11T01:08:50.039Z,9.50
2023-03-11T01:09:53.050Z,9.00
2023-03-11T01:10:55.684Z,11.00
2023-03-11T01:11:57.396Z,12.00
2023-03-11T01:13:00.046Z,8.50
2023-03-11T01:14:01.696Z,11.50
2023-03-11T01:15:04.882Z,9.00
2023-03-11T01:16:07.980Z,8.00
2023-03-11T01:17:10.706Z,11.00
2023-03-11T01:18:12.408Z,9.00
2023-03-11T01:19:15.066Z,9.00
2023-03-11T01:20:16.857Z,11.50
2023-03-11T01:21:19.454Z,9.00
2023-03-11T01:22:21.121Z,9.00
2023-03-11T01:23:23.751Z,12.50
2023-03-11T01:24:25.389Z,9.00
2023-03-11T01:25:29.362Z,11.00
2023-03-11T01:26:31.048Z,12.00
2023-03-11T01:27:33.832Z,9.50
2023-03-11T01:28:36.456Z,11.00
2023-03-11T01:29:38.098Z,10.50
2023-03-11T01:30:41.729Z,11.00
2023-03-11T01:31:43.400Z,11.00
2023-03-11T01:32:46.289Z,10.50
2023-03-11T01:33:47.960Z,11.00
2023-03-11T01:34:50.575Z,12.50
2023-03-11T01:35:52.278Z,9.00
2023-03-11T01:36:54.937Z,12.00
2023-03-11T01:37:56.813Z,12.50
2023-03-11T01:38:59.444Z,9.50
2023-03-11T01:40:01.082Z,9.00
2023-03-11T01:41:05.463Z,11.00
2023-03-11T01:42:07.580Z,9.50
2023-03-11T01:43:38.821Z,13.25
2023-03-11T01:44:41.437Z,11.00
2023-03-11T01:46:05.637Z,9.00
2023-03-11T01:47:34.375Z,11.00
2023-03-11T01:48:36.046Z,9.25
2023-03-11T01:49:41.894Z,9.00
2023-03-11T01:50:44.921Z,9.00
2023-03-11T01:51:51.086Z,7.00
2023-03-11T01:52:52.865Z,9.00
2023-03-11T01:53:55.652Z,8.50
2023-03-11T01:54:57.296Z,9.00
2023-03-11T01:55:59.926Z,8.50
2023-03-11T01:57:04.218Z,9.50
2023-03-11T01:58:09.221Z,7.50
2023-03-11T01:59:12.246Z,9.50
2023-03-11T02:00:16.581Z,9.00
2023-03-11T02:01:18.298Z,9.00
2023-03-11T02:02:22.584Z,9.00
2023-03-11T02:03:26.361Z,6.50
2023-03-11T02:04:29.276Z,9.00
2023-03-11T02:05:31.887Z,6.00
2023-03-11T02:06:33.581Z,8.00
2023-03-11T02:07:36.210Z,9.00
2023-03-11T02:08:37.977Z,7.00
2023-03-11T02:09:40.582Z,7.00
2023-03-11T02:10:43.181Z,5.50
2023-03-11T02:11:44.832Z,9.50
2023-03-11T02:12:48.859Z,6.50
2023-03-11T02:13:50.597Z,9.00
2023-03-11T02:14:53.921Z,7.00
2023-03-11T02:15:55.648Z,5.00
2023-03-11T02:16:58.446Z,7.00
2023-03-11T02:18:01.961Z,5.50
2023-03-11T02:19:08.805Z,7.00
2023-03-11T02:20:18.458Z,7.00
2023-03-11T02:21:24.519Z,7.00
2023-03-11T02:22:28.282Z,5.50
2023-03-11T02:23:32.318Z,7.00
2023-03-11T02:24:37.265Z,6.50
2023-03-11T02:25:42.892Z,5.00
2023-03-11T02:26:53.712Z,5.00
2023-03-11T02:27:56.324Z,5.50
2023-03-11T02:28:57.998Z,7.00
2023-03-11T02:30:00.991Z,7.00
2023-03-11T02:31:02.676Z,9.00
2023-03-11T02:32:07.486Z,5.00
2023-03-11T02:33:09.142Z,5.00
2023-03-11T02:34:14.710Z,7.50
2023-03-11T02:35:16.837Z,7.00
2023-03-11T02:36:35.413Z,9.50
2023-03-11T02:37:37.089Z,7.50
2023-03-11T02:38:39.835Z,7.50
2023-03-11T02:39:42.742Z,5.00
2023-03-11T02:40:49.684Z,9.00
2023-03-11T02:41:52.658Z,7.00
2023-03-11T02:42:56.067Z,8.50
2023-03-11T02:43:57.745Z,7.00
2023-03-11T02:45:02.232Z,7.00
2023-03-11T02:46:04.301Z,7.00
2023-03-11T02:47:07.239Z,7.00
2023-03-11T02:48:09.481Z,5.00
2023-03-11T02:49:12.170Z,8.00
2023-03-11T02:51:37.612Z,6.00
2023-03-11T02:52:39.372Z,7.00
2023-03-11T02:53:48.153Z,7.50
2023-03-11T02:54:49.813Z,7.00
2023-03-11T02:55:52.449Z,9.00
2023-03-11T02:56:55.435Z,9.00
2023-03-11T02:57:58.026Z,7.00
2023-03-11T02:58:59.683Z,7.00
2023-03-11T03:00:08.640Z,5.00
2023-03-11T03:01:10.300Z,5.00
2023-03-11T03:02:12.942Z,4.50
2023-03-11T03:03:14.596Z,5.00
2023-03-11T03:04:17.245Z,7.00
2023-03-11T03:05:20.521Z,5.50
2023-03-11T03:06:23.152Z,6.00
2023-03-11T03:07:24.762Z,3.50
2023-03-11T03:08:27.399Z,4.50
2023-03-11T03:09:29.043Z,7.00
2023-03-11T03:10:31.646Z,7.00
2023-03-11T03:11:33.251Z,5.00
2023-03-11T03:12:37.192Z,5.00
2023-03-11T03:13:38.844Z,5.50
2023-03-11T03:14:41.492Z,6.00
2023-03-11T03:15:43.124Z,8.50
2023-03-11T03:16:45.865Z,5.00
2023-03-11T03:17:47.672Z,5.00
2023-03-11T03:18:50.286Z,6.50
2023-03-11T03:19:51.936Z,6.00
2023-03-11T03:20:54.564Z,5.00
2023-03-11T03:21:57.174Z,5.00
2023-03-11T03:22:58.975Z,6.00
2023-03-11T03:24:01.590Z,5.00
2023-03-11T03:25:03.762Z,5.00
2023-03-11T03:26:06.424Z,5.00
2023-03-11T03:27:08.052Z,5.00
2023-03-11T03:28:12.562Z,4.50
2023-03-11T03:29:15.152Z,4.50
2023-03-11T03:30:17.029Z,5.00
2023-03-11T03:31:19.681Z,5.00
2023-03-11T03:32:21.378Z,3.50
2023-03-11T03:33:23.996Z,6.00
2023-03-11T03:34:25.636Z,6.00
2023-03-11T03:35:28.326Z,5.50
2023-03-11T03:36:31.005Z,6.50
2023-03-11T03:37:33.118Z,5.00
2023-03-11T03:38:35.716Z,7.00
2023-03-11T03:39:37.367Z,4.50
2023-03-11T03:40:40.080Z,5.00
2023-03-11T03:41:41.708Z,3.00
2023-03-11T03:42:44.332Z,4.00
2023-03-11T03:43:47.294Z,3.00
2023-03-11T03:44:49.890Z,3.00
2023-03-11T03:45:57.789Z,6.50
2023-03-11T03:47:00.469Z,5.00
2023-03-11T03:48:02.075Z,5.00
2023-03-11T03:49:04.692Z,5.00
2023-03-11T03:50:07.557Z,6.50
2023-03-11T03:51:11.231Z,5.50
2023-03-11T03:52:13.162Z,6.50
2023-03-11T03:53:15.760Z,6.50
2023-03-11T03:54:17.380Z,3.50
2023-03-11T03:55:20.064Z,5.50
2023-03-11T03:56:22.213Z,7.00
2023-03-11T03:57:24.807Z,5.00
2023-03-11T03:58:27.416Z,5.50
2023-03-11T03:59:30.401Z,7.00
2023-03-11T04:00:34.294Z,7.00
2023-03-11T04:01:35.966Z,3.50
2023-03-11T04:02:38.708Z,3.00
2023-03-11T04:03:40.562Z,7.00
2023-03-11T04:04:43.219Z,5.00
2023-03-11T04:05:44.827Z,5.50
2023-03-11T04:06:47.460Z,5.00
2023-03-11T04:07:49.071Z,5.00
2023-03-11T04:08:51.847Z,5.00
2023-03-11T04:09:53.454Z,5.50
2023-03-11T04:10:58.922Z,5.00
2023-03-11T04:12:00.589Z,3.00
2023-03-11T04:13:03.193Z,5.00
2023-03-11T04:14:05.137Z,5.00
2023-03-11T04:15:10.506Z,7.00
2023-03-11T04:16:15.606Z,6.00
2023-03-11T04:17:18.922Z,5.00
2023-03-11T04:18:22.750Z,7.00
2023-03-11T04:19:25.365Z,7.00
2023-03-11T04:20:26.978Z,7.00
2023-03-11T04:21:29.569Z,7.00
2023-03-11T04:22:31.393Z,5.00
2023-03-11T04:23:34.366Z,5.00
2023-03-11T04:24:36.013Z,7.00
2023-03-11T04:25:38.594Z,5.50
2023-03-11T04:26:40.249Z,4.50
2023-03-11T04:27:45.951Z,8.50
2023-03-11T04:28:47.600Z,5.00
2023-03-11T04:29:50.199Z,5.00
2023-03-11T04:30:53.255Z,3.00
2023-03-11T04:31:55.908Z,3.00
2023-03-11T04:32:57.566Z,5.00
2023-03-11T04:34:00.152Z,3.00
2023-03-11T04:35:01.766Z,3.00
2023-03-11T04:36:06.430Z,5.00
2023-03-11T04:37:08.057Z,5.00
2023-03-11T04:38:10.762Z,7.00
2023-03-11T04:39:12.414Z,4.50
2023-03-11T04:40:15.429Z,3.00
2023-03-11T04:41:17.055Z,5.00
2023-03-11T04:42:19.672Z,5.00
2023-03-11T04:43:21.412Z,4.00
2023-03-11T04:44:24.027Z,5.00
2023-03-11T04:45:25.711Z,4.50
2023-03-11T04:46:29.694Z,5.00
2023-03-11T04:47:31.547Z,3.50
2023-03-11T04:48:34.174Z,4.00
2023-03-11T04:49:36.041Z,5.00
2023-03-11T04:50:38.711Z,5.00
2023-03-11T04:51:40.343Z,7.00
2023-03-11T04:52:42.948Z,6.00
2023-03-11T04:53:44.663Z,5.00
2023-03-11T04:54:47.278Z,5.00
2023-03-11T04:55:48.960Z,5.00
2023-03-11T04:56:51.554Z,6.50
2023-03-11T04:57:53.179Z,7.00
2023-03-11T04:58:55.819Z,5.00
2023-03-11T04:59:57.446Z,5.00
2023-03-11T05:01:00.045Z,9.50
2023-03-11T05:02:03.056Z,5.00
2023-03-11T05:03:05.702Z,6.50
2023-03-11T05:04:07.388Z,6.50
2023-03-11T05:05:10.567Z,7.00
2023-03-11T05:06:12.240Z,7.00
2023-03-11T05:07:14.838Z,7.00
2023-03-11T05:08:16.459Z,7.00
2023-03-11T05:09:19.114Z,8.00
2023-03-11T05:10:22.561Z,6.50
2023-03-11T05:11:25.292Z,8.00
2023-03-11T05:12:27.001Z,9.50
2023-03-11T05:13:30.093Z,8.00
2023-03-11T05:14:31.764Z,9.00
2023-03-11T05:15:34.608Z,9.00
2023-03-11T05:16:36.282Z,9.00
2023-03-11T05:17:40.219Z,9.00
2023-03-11T05:18:42.823Z,7.00
2023-03-11T05:19:44.471Z,8.50
2023-03-11T05:20:47.068Z,7.00
2023-03-11T05:21:49.027Z,9.00
2023-03-11T05:22:51.632Z,8.50
2023-03-11T05:23:53.275Z,9.00
2023-03-11T05:24:55.902Z,9.00
2023-03-11T05:25:57.583Z,8.00
2023-03-11T05:27:01.200Z,9.50
2023-03-11T05:28:02.844Z,9.00
2023-03-11T05:29:05.452Z,7.50
2023-03-11T05:30:08.343Z,11.00
2023-03-11T05:31:11.159Z,12.00
2023-03-11T05:32:12.970Z,6.50
2023-03-11T05:33:16.996Z,7.50
2023-03-11T05:34:18.627Z,11.00
2023-03-11T05:35:21.518Z,8.00
2023-03-11T05:36:23.185Z,11.00
2023-03-11T05:37:25.772Z,10.50
2023-03-11T05:38:27.377Z,7.00
2023-03-11T05:39:29.986Z,11.25
2023-03-11T05:40:31.631Z,9.00
2023-03-11T05:41:34.232Z,10.50
2023-03-11T05:42:35.866Z,8.50
2023-03-11T05:43:38.463Z,9.50
2023-03-11T05:44:41.382Z,12.50
2023-03-11T05:45:44.025Z,9.00
2023-03-11T05:46:45.672Z,12.00
2023-03-11T05:47:48.324Z,11.00
2023-03-11T05:48:51.299Z,11.00
2023-03-11T05:49:53.904Z,13.00
2023-03-11T05:50:56.570Z,13.00
2023-03-11T05:51:58.961Z,12.00
2023-03-11T05:53:01.673Z,14.75
2023-03-11T05:54:03.464Z,13.00
2023-03-11T05:55:06.811Z,13.75
2023-03-11T05:56:08.552Z,12.00
2023-03-11T05:57:11.154Z,12.50
2023-03-11T05:58:12.904Z,14.00
2023-03-11T05:59:16.604Z,11.00
2023-03-11T06:00:20.482Z,13.00
2023-03-11T06:01:23.122Z,16.75
2023-03-11T06:02:24.742Z,15.00
2023-03-11T06:03:27.359Z,11.50
2023-03-11T06:04:30.881Z,11.00
2023-03-11T06:05:33.595Z,15.00
2023-03-11T06:06:35.278Z,13.00
2023-03-11T06:07:38.340Z,11.00
2023-03-11T06:08:40.084Z,15.50
2023-03-11T06:09:42.671Z,12.50
2023-03-11T06:10:46.282Z,13.50
2023-03-11T06:11:49.859Z,14.00
2023-03-11T06:12:51.497Z,14.75
2023-03-11T06:13:54.400Z,16.75
2023-03-11T06:14:56.990Z,13.50
2023-03-11T06:15:58.642Z,14.75
2023-03-11T06:17:01.276Z,14.75
2023-03-11T06:18:02.942Z,14.50
2023-03-11T06:19:05.542Z,15.50
2023-03-11T06:20:11.387Z,16.75
2023-03-11T06:21:15.719Z,12.50
2023-03-11T06:22:18.382Z,16.75
2023-03-11T06:23:20.467Z,14.75
2023-03-11T06:24:23.085Z,14.75
2023-03-11T06:25:24.737Z,13.00
2023-03-11T06:26:27.345Z,14.00
2023-03-11T06:27:29.029Z,18.00
2023-03-11T06:28:31.868Z,16.00
2023-03-11T06:29:34.472Z,16.50
2023-03-11T06:30:36.135Z,14.50
2023-03-11T06:31:39.996Z,19.25
2023-03-11T06:32:43.579Z,20.00
2023-03-11T06:33:46.271Z,16.75
2023-03-11T06:34:50.590Z,18.25
2023-03-11T06:36:00.632Z,14.75
2023-03-11T06:37:02.468Z,14.00
2023-03-11T06:38:05.090Z,19.25
2023-03-11T06:39:06.924Z,16.75
2023-03-11T06:40:11.276Z,15.25
2023-03-11T06:41:12.913Z,18.00
2023-03-11T06:42:15.585Z,16.00
2023-03-11T06:43:17.246Z,19.50
2023-03-11T06:44:19.850Z,18.00
2023-03-11T06:45:21.495Z,18.25
2023-03-11T06:46:24.090Z,14.00
2023-03-11T06:47:25.792Z,19.00
2023-03-11T06:48:28.417Z,19.00
2023-03-11T06:49:30.033Z,21.25
2023-03-11T06:50:32.634Z,16.50
2023-03-11T06:51:35.612Z,16.00
2023-03-11T06:52:38.296Z,15.25
2023-03-11T06:53:39.992Z,14.75
2023-03-11T06:54:42.771Z,14.75
2023-03-11T06:55:44.459Z,18.75
2023-03-11T06:56:47.052Z,17.25
2023-03-11T06:57:48.772Z,13.75
2023-03-11T06:58:51.482Z,17.25
2023-03-11T06:59:53.220Z,20.00
2023-03-11T07:00:55.837Z,20.00
2023-03-11T07:01:58.525Z,17.75
2023-03-11T07:03:01.214Z,16.25
2023-03-11T07:04:03.929Z,17.25
2023-03-11T07:05:07.049Z,16.25
2023-03-11T07:06:12.799Z,18.75
2023-03-11T07:07:15.770Z,20.00
2023-03-11T07:08:18.439Z,20.50
2023-03-11T07:09:22.342Z,19.25
2023-03-11T07:10:23.991Z,17.75
2023-03-11T07:11:27.272Z,20.25
2023-03-11T07:12:29.060Z,18.25
2023-03-11T07:13:31.740Z,20.25
2023-03-11T07:14:33.373Z,18.00
2023-03-11T07:15:36.126Z,16.50
2023-03-11T07:16:38.579Z,21.00
2023-03-11T07:17:41.216Z,20.25
2023-03-11T07:18:43.069Z,16.75
2023-03-11T07:19:45.669Z,18.50
2023-03-11T07:20:47.360Z,20.00
2023-03-11T07:21:49.960Z,20.50
2023-03-11T07:22:52.924Z,19.50
2023-03-11T07:23:55.897Z,16.50
2023-03-11T07:24:57.531Z,18.50
2023-03-11T07:26:00.165Z,18.25
2023-03-11T07:27:02.774Z,19.25
2023-03-11T07:28:05.810Z,19.50
2023-03-11T07:29:08.708Z,19.00
2023-03-11T07:30:11.401Z,16.00
2023-03-11T07:31:16.532Z,17.75
2023-03-11T07:32:18.372Z,17.00
2023-03-11T07:33:21.292Z,17.75
2023-03-11T07:34:23.013Z,21.75
2023-03-11T07:35:25.693Z,15.75
2023-03-11T07:36:27.470Z,18.00
2023-03-11T07:37:30.076Z,23.25
2023-03-11T07:38:33.057Z,17.75
2023-03-11T07:39:35.753Z,17.75
2023-03-11T07:40:37.383Z,15.50
2023-03-11T07:41:40.000Z,17.25
2023-03-11T07:42:41.639Z,18.00
2023-03-11T07:43:44.288Z,16.25
2023-03-11T07:44:47.096Z,18.50
2023-03-11T07:45:48.974Z,15.00
2023-03-11T07:46:51.597Z,14.00
2023-03-11T07:47:53.219Z,16.00
2023-03-11T07:48:55.864Z,14.00
2023-03-11T07:49:57.526Z,16.00
2023-03-11T07:51:04.342Z,17.00
2023-03-11T07:52:07.665Z,18.00
2023-03-11T07:53:09.296Z,14.00
2023-03-11T07:54:13.375Z,14.00
2023-03-11T07:55:15.283Z,16.00
2023-03-11T07:56:18.223Z,15.00
2023-03-11T07:57:19.870Z,11.00
2023-03-11T07:58:22.466Z,20.00
2023-03-11T07:59:26.249Z,13.50
2023-03-11T08:00:28.051Z,16.00
2023-03-11T08:01:36.420Z,13.50
2023-03-11T08:02:38.367Z,15.00
2023-03-11T08:03:41.167Z,14.75
2023-03-11T08:04:42.811Z,15.25
2023-03-11T08:05:45.597Z,16.75
2023-03-11T08:06:47.527Z,14.25
2023-03-11T08:07:50.139Z,14.75
2023-03-11T08:08:51.801Z,14.50
2023-03-11T08:09:55.750Z,16.00
2023-03-11T08:10:57.419Z,18.00
2023-03-11T08:12:00.015Z,16.00
2023-03-11T08:13:01.665Z,14.75
2023-03-11T08:14:04.453Z,13.25
2023-03-11T08:15:08.292Z,14.00
2023-03-11T08:16:10.726Z,12.00
2023-03-11T08:17:13.352Z,14.00
2023-03-11T08:18:14.976Z,13.25
2023-03-11T08:19:17.583Z,13.50
2023-03-11T08:20:20.256Z,12.25
2023-03-11T08:21:23.127Z,13.50
2023-03-11T08:22:25.726Z,13.50
2023-03-11T08:23:27.357Z,12.25
2023-03-11T08:24:30.056Z,13.75
2023-03-11T08:25:33.041Z,13.25
2023-03-11T08:26:35.657Z,19.75
2023-03-11T08:27:39.029Z,20.00
2023-03-11T08:28:40.750Z,17.50
2023-03-11T08:29:43.351Z,15.50
2023-03-11T08:30:45.061Z,14.50
2023-03-11T08:31:47.792Z,11.00
2023-03-11T08:32:50.683Z,12.00
2023-03-11T08:33:53.241Z,11.50
2023-03-11T08:34:55.865Z,10.75
2023-03-11T08:35:57.663Z,12.00
2023-03-11T08:37:00.662Z,11.00
2023-03-11T08:38:02.272Z,10.75
2023-03-11T08:39:05.173Z,12.00
2023-03-11T08:40:10.469Z,10.75
2023-03-11T08:41:14.432Z,14.00
2023-03-11T08:42:17.261Z,8.75
2023-03-11T08:43:19.249Z,12.50
2023-03-11T08:44:22.074Z,13.00
2023-03-11T08:45:24.031Z,8.25
2023-03-11T08:46:27.608Z,12.00
2023-03-11T08:47:30.892Z,8.75
2023-03-11T08:48:33.529Z,9.50
2023-03-11T08:49:36.283Z,11.00
2023-03-11T08:50:52.777Z,9.50
2023-03-11T08:51:56.287Z,9.25
2023-03-11T08:53:00.561Z,8.00
2023-03-11T08:54:03.331Z,7.75
2023-03-11T08:55:06.203Z,12.00
2023-03-11T08:56:09.332Z,7.50
2023-03-11T08:57:13.303Z,8.00
2023-03-11T08:58:14.977Z,8.00
2023-03-11T08:59:17.586Z,6.75
2023-03-11T09:00:20.163Z,10.00
2023-03-11T09:01:23.553Z,9.00
2023-03-11T09:02:26.378Z,7.25
2023-03-11T09:03:29.474Z,10.00
2023-03-11T09:04:32.168Z,6.00
2023-03-11T09:05:33.804Z,5.75
2023-03-11T09:06:36.413Z,8.00
2023-03-11T09:07:38.085Z,6.50
2023-03-11T09:08:40.742Z,9.50
2023-03-11T09:09:42.638Z,9.25
2023-03-11T09:10:45.274Z,6.00
2023-03-11T09:11:47.875Z,11.00
2023-03-11T09:12:51.824Z,11.50
2023-03-11T09:13:53.483Z,9.75
2023-03-11T09:14:56.201Z,12.00
2023-03-11T09:15:58.863Z,9.00
2023-03-11T09:17:01.534Z,8.75
2023-03-11T09:18:03.296Z,8.75
2023-03-11T09:19:07.390Z,9.00
2023-03-11T09:20:11.689Z,8.75
2023-03-11T09:21:14.296Z,8.25
2023-03-11T09:22:15.929Z,9.00
2023-03-11T09:23:18.693Z,9.00
2023-03-11T09:24:21.403Z,8.50
2023-03-11T09:25:23.271Z,6.00
2023-03-11T09:26:26.055Z,7.75
2023-03-11T09:27:27.691Z,9.00
2023-03-11T09:28:31.629Z,4.00
2023-03-11T09:29:33.333Z,3.25
2023-03-11T09:30:36.002Z,4.00
2023-03-11T09:31:39.273Z,3.50
2023-03-11T09:32:40.957Z,6.00
2023-03-11T09:33:43.678Z,4.75
2023-03-11T09:34:45.401Z,3.75
2023-03-11T09:35:48.552Z,4.00
2023-03-11T09:36:50.210Z,4.00
2023-03-11T09:37:52.803Z,3.00
2023-03-11T09:38:55.397Z,4.75
2023-03-11T09:39:57.226Z,3.00
2023-03-11T09:41:01.599Z,2.50
2023-03-11T09:42:04.667Z,2.50
2023-03-11T09:43:08.874Z,3.00
2023-03-11T09:44:18.411Z,4.00
2023-03-11T09:45:22.235Z,3.00
2023-03-11T09:46:34.513Z,3.00
2023-03-11T09:47:41.808Z,3.00
2023-03-11T09:48:44.467Z,3.00
2023-03-11T09:49:53.844Z,3.00
2023-03-11T09:50:58.676Z,1.50
2023-03-11T09:52:04.050Z,3.25
2023-03-11T09:53:14.455Z,4.50
2023-03-11T09:54:17.060Z,3.00
2023-03-11T09:55:27.428Z,4.00
2023-03-11T09:56:30.397Z,3.00
2023-03-11T09:57:33.283Z,3.00
2023-03-11T09:58:40.451Z,3.25
2023-03-11T09:59:43.743Z,3.00
2023-03-11T10:00:46.369Z,2.00
2023-03-11T10:01:49.882Z,3.00
2023-03-11T10:02:52.586Z,3.00
2023-03-11T10:03:56.909Z,3.25
2023-03-11T10:04:59.344Z,3.00
2023-03-11T10:06:13.776Z,4.00
2023-03-11T10:07:19.009Z,1.00
2023-03-11T10:08:30.508Z,1.00
2023-03-11T10:09:37.607Z,3.00
2023-03-11T10:10:44.623Z,4.00
2023-03-11T10:11:55.071Z,4.25
2023-03-11T10:12:59.616Z,4.00
2023-03-11T10:14:07.304Z,6.00
2023-03-11T10:15:17.044Z,1.50
2023-03-11T10:16:22.213Z,1.00
2023-03-11T10:17:36.601Z,2.50
2023-03-11T10:18:47.657Z,3.25
2023-03-11T10:19:52.067Z,1.50
2023-03-11T10:20:55.502Z,1.00
2023-03-11T10:22:01.730Z,1.00
2023-03-11T10:23:11.064Z,2.00
2023-03-11T10:24:34.864Z,4.00
2023-03-11T10:25:42.538Z,3.00
2023-03-11T10:26:46.529Z,3.75
2023-03-11T10:27:49.471Z,3.00
2023-03-11T10:28:54.020Z,3.00
2023-03-11T10:29:57.173Z,3.00
2023-03-11T10:31:03.286Z,1.00
2023-03-11T10:32:06.458Z,1.00
2023-03-11T10:33:10.887Z,3.00
2023-03-11T10:34:15.491Z,3.00
2023-03-11T10:35:19.526Z,1.00
2023-03-11T10:36:24.196Z,3.00
2023-03-11T10:37:38.857Z,1.00
2023-03-11T10:38:49.550Z,1.00
2023-03-11T10:39:51.219Z,3.00
2023-03-11T10:40:55.089Z,2.50
2023-03-11T10:41:59.142Z,3.00
2023-03-11T10:43:02.033Z,3.00
2023-03-11T10:44:06.969Z,3.00
2023-03-11T10:45:11.590Z,3.00
2023-03-11T10:46:18.757Z,2.00
2023-03-11T10:47:21.454Z,3.00
2023-03-11T10:48:25.989Z,8.50
2023-03-11T10:49:27.638Z,6.50
2023-03-11T10:50:31.506Z,2.00
2023-03-11T10:51:34.541Z,3.00
2023-03-11T10:52:39.271Z,2.75
2023-03-11T10:53:45.523Z,3.75
2023-03-11T10:54:48.549Z,3.25
2023-03-11T10:55:51.027Z,2.50
2023-03-11T10:56:56.342Z,1.00
2023-03-11T10:58:05.170Z,3.25
2023-03-11T10:59:20.271Z,1.50
2023-03-11T11:00:30.266Z,3.00
2023-03-11T11:01:33.408Z,3.00
2023-03-11T11:02:42.064Z,3.50
2023-03-11T11:03:47.417Z,3.00
2023-03-11T11:04:49.073Z,3.00
2023-03-11T11:05:59.732Z,2.00
2023-03-11T11:07:21.194Z,3.00
2023-03-11T11:08:22.838Z,3.00
2023-03-11T11:09:26.936Z,2.00
2023-03-11T11:10:28.805Z,2.50
2023-03-11T11:11:31.885Z,2.50
2023-03-11T11:12:33.560Z,1.50
2023-03-11T11:13:36.389Z,3.00
2023-03-11T11:14:44.980Z,1.00
2023-03-11T11:15:58.703Z,3.00
2023-03-11T11:17:01.779Z,3.00
2023-03-11T11:18:05.945Z,4.00
2023-03-11T11:19:10.167Z,7.00
2023-03-11T11:20:15.820Z,3.00
2023-03-11T11:21:27.637Z,5.00
2023-03-11T11:22:32.091Z,4.00
2023-03-11T11:23:37.331Z,4.00
2023-03-11T11:24:40.021Z,4.00
2023-03-11T11:25:42.654Z,3.00
2023-03-11T11:27:02.684Z,4.00
2023-03-11T11:28:15.222Z,3.00
2023-03-11T11:29:16.881Z,3.75
2023-03-11T11:30:20.215Z,3.00
2023-03-11T11:31:24.729Z,3.75
2023-03-11T11:32:28.045Z,3.50
2023-03-11T11:33:31.433Z,6.00
2023-03-11T11:34:33.790Z,3.25
2023-03-11T11:35:36.552Z,3.00
2023-03-11T11:36:39.670Z,4.00
2023-03-11T11:37:42.663Z,4.25
2023-03-11T11:38:45.339Z,3.00
2023-03-11T11:39:51.506Z,4.00
2023-03-11T11:40:55.289Z,3.00
2023-03-11T11:41:57.993Z,3.00
2023-03-11T11:43:01.552Z,3.75
2023-03-11T11:44:04.836Z,4.50
2023-03-11T11:45:13.286Z,4.00
2023-03-11T11:46:21.214Z,3.00
2023-03-11T11:47:24.223Z,3.00
2023-03-11T11:48:32.713Z,5.00
2023-03-11T11:49:34.836Z,5.50
2023-03-11T11:50:38.268Z,4.00
2023-03-11T11:51:41.173Z,6.00
2023-03-11T11:52:45.352Z,3.00
2023-03-11T11:53:49.745Z,6.00
2023-03-11T11:54:52.342Z,3.75
2023-03-11T11:55:55.001Z,6.00
2023-03-11T11:56:57.694Z,4.00
2023-03-11T11:57:59.337Z,4.00
2023-03-11T11:59:02.013Z,9.00
2023-03-11T12:00:20.387Z,4.00
2023-03-11T12:01:29.603Z,2.00
2023-03-11T12:02:40.664Z,1.50
2023-03-11T12:04:01.306Z,4.00
2023-03-11T12:05:06.144Z,2.50
2023-03-11T12:06:10.802Z,3.00
2023-03-11T12:07:23.108Z,3.00
2023-03-11T12:08:26.893Z,1.00
2023-03-11T12:09:31.236Z,3.00
2023-03-11T12:10:33.933Z,3.00
2023-03-11T12:11:41.524Z,3.00
2023-03-11T12:12:47.651Z,6.00
2023-03-11T12:14:00.516Z,4.00
2023-03-11T12:15:07.358Z,4.00
2023-03-11T12:16:14.767Z,4.00
2023-03-11T12:17:17.969Z,3.00
2023-03-11T12:18:20.756Z,11.25
2023-03-11T12:19:31.733Z,7.50
2023-03-11T12:20:35.821Z,6.25
2023-03-11T12:22:09.475Z,4.00
2023-03-11T12:23:19.163Z,7.50
2023-03-11T12:24:30.445Z,4.00
2023-03-11T12:25:36.469Z,4.50
2023-03-11T12:26:39.574Z,4.00
2023-03-11T12:27:42.730Z,4.00
2023-03-11T12:28:47.547Z,7.50
2023-03-11T12:29:50.167Z,4.50
2023-03-11T12:30:53.795Z,4.00
2023-03-11T12:31:56.520Z,6.00
2023-03-11T12:32:59.470Z,3.25
2023-03-11T12:34:03.226Z,3.00
2023-03-11T12:35:19.701Z,3.75
2023-03-11T12:36:24.488Z,3.00
2023-03-11T12:37:26.296Z,3.00
2023-03-11T12:38:32.808Z,3.00
2023-03-11T12:39:35.607Z,3.00
2023-03-11T12:40:51.107Z,3.00
2023-03-11T12:42:18.280Z,4.00
2023-03-11T12:43:29.950Z,3.00
2023-03-11T12:44:32.701Z,3.00
2023-03-11T12:45:50.406Z,3.00
2023-03-11T12:47:03.848Z,3.00
2023-03-11T12:48:42.964Z,3.00
2023-03-11T12:49:46.336Z,3.00
2023-03-11T12:50:49.336Z,3.00
2023-03-11T12:52:19.443Z,3.00
2023-03-11T12:53:22.115Z,4.00
2023-03-11T12:54:29.693Z,4.00
2023-03-11T12:55:36.086Z,3.00
2023-03-11T12:56:39.637Z,3.00
2023-03-11T12:57:42.795Z,3.00
2023-03-11T12:59:07.326Z,3.00
2023-03-11T13:00:34.819Z,3.00
2023-03-11T13:01:45.643Z,3.00
2023-03-11T13:03:22.245Z,5.50
2023-03-11T13:04:35.804Z,3.50
2023-03-11T13:05:48.973Z,3.00
2023-03-11T13:07:35.355Z,3.00
2023-03-11T13:08:37.887Z,4.50
2023-03-11T13:09:40.552Z,3.00
2023-03-11T13:10:42.253Z,3.00
2023-03-11T13:11:45.846Z,3.00
2023-03-11T13:12:47.856Z,4.00
2023-03-11T13:13:50.637Z,4.00
2023-03-11T13:15:21.531Z,3.00
2023-03-11T13:16:36.974Z,5.75
2023-03-11T13:17:40.079Z,3.25
2023-03-11T13:18:42.756Z,3.50
2023-03-11T13:19:49.087Z,5.75
2023-03-11T13:20:57.044Z,3.25
2023-03-11T13:21:59.546Z,6.00
2023-03-11T13:23:22.328Z,3.25
2023-03-11T13:24:50.485Z,4.50
2023-03-11T13:26:21.630Z,5.25
2023-03-11T13:27:31.679Z,3.00
2023-03-11T13:29:21.034Z,3.00
2023-03-11T13:30:23.720Z,4.00
2023-03-11T13:31:43.098Z,5.00
2023-03-11T13:33:15.239Z,3.00
2023-03-11T13:34:18.354Z,3.00
2023-03-11T13:35:24.777Z,5.00
2023-03-11T13:36:37.557Z,3.00
2023-03-11T13:37:45.288Z,3.25
2023-03-11T13:39:02.142Z,3.00
2023-03-11T13:40:13.958Z,3.00
2023-03-11T13:41:17.300Z,2.00
2023-03-11T13:42:25.587Z,3.00
2023-03-11T13:43:28.691Z,4.50
2023-03-11T13:44:33.528Z,3.00
2023-03-11T13:45:36.815Z,3.00
2023-03-11T13:46:39.485Z,1.50
2023-03-11T13:47:43.006Z,3.00
2023-03-11T13:48:46.021Z,3.75
2023-03-11T13:49:52.797Z,3.00
2023-03-11T13:50:55.631Z,3.00
2023-03-11T13:51:59.386Z,5.00
2023-03-11T13:53:01.367Z,3.25
2023-03-11T13:54:06.201Z,3.00
2023-03-11T13:55:16.087Z,3.00
2023-03-11T13:56:18.379Z,3.75
2023-03-11T13:57:27.168Z,3.00
2023-03-11T13:58:28.875Z,3.00
2023-03-11T13:59:32.855Z,3.25
2023-03-11T14:00:35.543Z,3.00
2023-03-11T14:01:37.223Z,3.00
2023-03-11T14:02:39.881Z,3.00
2023-03-11T14:03:42.402Z,3.25
2023-03-11T14:04:48.957Z,2.75
2023-03-11T14:05:52.474Z,2.75
2023-03-11T14:06:54.304Z,3.75
2023-03-11T14:07:56.924Z,3.00
2023-03-11T14:08:58.571Z,3.50